createdAt,value
2022-09-12T00:00:06.928Z,95459.47
2022-09-12T00:03:17.929Z,95462.41
2022-09-12T00:06:09.655Z,95455.16
2022-09-12T00:08:57.806Z,95452.78
2022-09-12T00:11:46.497Z,95454.94
2022-09-12T00:14:32.411Z,95457.19
2022-09-12T00:17:53.412Z,95464.91
2022-09-12T00:20:47.209Z,95465.03
2022-09-12T00:23:33.516Z,95461.19
2022-09-12T00:26:20.584Z,95457.19
2022-09-12T00:30:11.716Z,95467.81
2022-09-12T00:32:57.582Z,95464.66
2022-09-12T00:35:54.961Z,95459.88
2022-09-12T00:38:51.192Z,95461.22
2022-09-12T00:41:59.099Z,95468.25
2022-09-12T00:44:48.248Z,95461.22
2022-09-12T00:47:36.349Z,95472.09
2022-09-12T00:50:26.789Z,95463.50
2022-09-12T00:53:12.647Z,95465.75
2022-09-12T00:55:58.970Z,95467.22
2022-09-12T00:59:00.909Z,95463.94
2022-09-12T01:01:49.024Z,95455.97
2022-09-12T01:04:37.547Z,95458.25
2022-09-12T01:07:24.069Z,95463.47
2022-09-12T01:10:10.844Z,95463.16
2022-09-12T01:12:57.547Z,95467.09
2022-09-12T01:15:43.305Z,95454.84
2022-09-12T01:19:12.747Z,95458.03
2022-09-12T01:22:48.318Z,95461.66
2022-09-12T01:26:18.404Z,95460.06
2022-09-12T01:29:34.201Z,95464.03
2022-09-12T01:32:43.089Z,95456.66
2022-09-12T01:36:08.813Z,95453.94
2022-09-12T01:39:34.429Z,95448.75
2022-09-12T01:43:12.593Z,95441.25
2022-09-12T01:47:11.182Z,95448.00
2022-09-12T01:50:07.558Z,95441.00
2022-09-12T01:52:58.889Z,95444.06
2022-09-12T01:56:06.580Z,95449.38
2022-09-12T01:59:06.911Z,95435.97
2022-09-12T02:02:06.275Z,95433.34
2022-09-12T02:05:17.216Z,95440.94
2022-09-12T02:08:06.155Z,95432.50
2022-09-12T02:11:02.146Z,95425.72
2022-09-12T02:14:07.225Z,95422.06
2022-09-12T02:16:57.205Z,95419.56
2022-09-12T02:20:08.374Z,95410.22
2022-09-12T02:22:56.259Z,95414.88
2022-09-12T02:25:43.580Z,95439.91
2022-09-12T02:28:33.073Z,95436.63
2022-09-12T02:31:36.044Z,95444.31
2022-09-12T02:34:35.211Z,95446.47
2022-09-12T02:37:25.992Z,95448.53
2022-09-12T02:40:12.776Z,95438.06
2022-09-12T02:42:58.952Z,95446.56
2022-09-12T02:45:45.171Z,95454.22
2022-09-12T02:48:34.729Z,95453.31
2022-09-12T02:51:23.659Z,95454.13
2022-09-12T02:54:10.446Z,95449.00
2022-09-12T02:56:56.628Z,95438.47
2022-09-12T02:59:42.764Z,95435.91
2022-09-12T03:03:03.019Z,95442.44
2022-09-12T03:06:03.004Z,95440.84
2022-09-12T03:09:27.157Z,95435.44
2022-09-12T03:12:24.234Z,95452.63
2022-09-12T03:15:19.544Z,95442.88
2022-09-12T03:18:31.903Z,95452.63
2022-09-12T03:21:42.610Z,95447.88
2022-09-12T03:24:38.077Z,95443.25
2022-09-12T03:27:36.838Z,95440.06
2022-09-12T03:30:22.883Z,95444.69
2022-09-12T03:33:13.700Z,95448.53
2022-09-12T03:35:59.818Z,95460.22
2022-09-12T03:38:45.935Z,95461.81
2022-09-12T03:41:31.810Z,95451.72
2022-09-12T03:44:18.293Z,95442.84
2022-09-12T03:47:06.965Z,95440.31
2022-09-12T03:49:56.741Z,95456.44
2022-09-12T03:52:42.680Z,95454.38
2022-09-12T03:55:28.466Z,95463.00
2022-09-12T03:58:14.320Z,95455.28
2022-09-12T04:01:00.048Z,95460.72
2022-09-12T04:03:48.196Z,95461.53
2022-09-12T04:06:33.894Z,95448.28
2022-09-12T04:09:19.643Z,95456.88
2022-09-12T04:12:05.916Z,95458.00
2022-09-12T04:14:51.462Z,95454.38
2022-09-12T04:17:37.282Z,95456.88
2022-09-12T04:20:23.232Z,95465.25
2022-09-12T04:23:09.296Z,95466.38
2022-09-12T04:25:56.354Z,95461.59
2022-09-12T04:28:43.323Z,95463.66
2022-09-12T04:31:30.923Z,95454.75
2022-09-12T04:34:16.845Z,95470.22
2022-09-12T04:37:14.012Z,95472.91
2022-09-12T04:40:03.744Z,95460.19
2022-09-12T04:42:49.726Z,95465.09
2022-09-12T04:45:39.167Z,95486.34
2022-09-12T04:48:25.506Z,95487.91
2022-09-12T04:51:18.161Z,95487.91
2022-09-12T04:54:07.870Z,95492.03
2022-09-12T04:56:55.360Z,95492.69
2022-09-12T04:59:41.333Z,95508.34
2022-09-12T05:02:30.117Z,95509.94
2022-09-12T05:05:17.569Z,95498.13
2022-09-12T05:08:03.701Z,95501.78
2022-09-12T05:10:49.552Z,95511.06
2022-09-12T05:13:35.509Z,95508.13
2022-09-12T05:16:22.034Z,95510.19
2022-09-12T05:19:09.712Z,95514.97
2022-09-12T05:21:56.302Z,95516.56
2022-09-12T05:24:47.245Z,95514.19
2022-09-12T05:27:36.029Z,95514.31
2022-09-12T05:30:21.622Z,95514.31
2022-09-12T05:33:07.205Z,95506.59
2022-09-12T05:35:53.145Z,95504.19
2022-09-12T05:38:39.408Z,95501.97
2022-09-12T05:41:29.542Z,95519.91
2022-09-12T05:44:15.581Z,95516.34
2022-09-12T05:47:01.526Z,95509.56
2022-09-12T05:49:49.127Z,95507.22
2022-09-12T05:52:35.239Z,95502.41
2022-09-12T05:55:21.296Z,95504.22
2022-09-12T05:58:07.480Z,95508.31
2022-09-12T06:00:53.295Z,95513.34
2022-09-12T06:03:50.514Z,95512.94
2022-09-12T06:06:41.876Z,95518.63
2022-09-12T06:09:28.186Z,95522.72
2022-09-12T06:12:14.219Z,95517.25
2022-09-12T06:15:00.192Z,95516.72
2022-09-12T06:17:50.786Z,95520.03
2022-09-12T06:20:37.062Z,95521.44
2022-09-12T06:23:23.189Z,95526.66
2022-09-12T06:26:10.612Z,95518.72
2022-09-12T06:28:58.442Z,95525.19
2022-09-12T06:31:44.463Z,95521.09
2022-09-12T06:34:31.537Z,95519.19
2022-09-12T06:37:17.610Z,95518.63
2022-09-12T06:40:03.568Z,95515.13
2022-09-12T06:42:49.666Z,95522.81
2022-09-12T06:45:51.232Z,95518.16
2022-09-12T06:48:41.578Z,95513.69
2022-09-12T06:51:29.120Z,95507.81
2022-09-12T06:54:17.255Z,95508.91
2022-09-12T06:57:03.526Z,95515.47
2022-09-12T06:59:49.327Z,95512.94
2022-09-12T07:02:34.943Z,95512.69
2022-09-12T07:05:20.615Z,95515.88
2022-09-12T07:08:06.374Z,95512.44
2022-09-12T07:10:52.120Z,95514.81
2022-09-12T07:13:39.514Z,95523.81
2022-09-12T07:16:25.780Z,95522.22
2022-09-12T07:19:12.201Z,95520.63
2022-09-12T07:21:58.808Z,95527.00
2022-09-12T07:24:45.877Z,95523.94
2022-09-12T07:27:31.450Z,95528.78
2022-09-12T07:30:17.834Z,95529.69
2022-09-12T07:33:03.878Z,95525.38
2022-09-12T07:35:49.883Z,95523.53
2022-09-12T07:38:35.906Z,95528.72
2022-09-12T07:41:29.576Z,95522.22
2022-09-12T07:44:15.521Z,95532.44
2022-09-12T07:47:02.027Z,95523.22
2022-09-12T07:49:48.629Z,95522.97
2022-09-12T07:52:34.434Z,95531.25
2022-09-12T07:55:20.338Z,95525.44
2022-09-12T07:58:06.489Z,95530.88
2022-09-12T08:00:52.405Z,95533.78
2022-09-12T08:03:39.198Z,95529.72
2022-09-12T08:06:26.758Z,95522.16
2022-09-12T08:09:13.052Z,95530.19
2022-09-12T08:11:59.013Z,95521.81
2022-09-12T08:14:44.811Z,95531.41
2022-09-12T08:17:30.585Z,95529.66
2022-09-12T08:20:18.079Z,95528.56
2022-09-12T08:23:03.870Z,95532.66
2022-09-12T08:25:50.202Z,95534.84
2022-09-12T08:28:36.726Z,95531.59
2022-09-12T08:31:24.646Z,95532.63
2022-09-12T08:34:10.754Z,95529.31
2022-09-12T08:36:56.728Z,95530.78
2022-09-12T08:39:42.480Z,95515.72
2022-09-12T08:43:14.647Z,95524.28
2022-09-12T08:46:40.074Z,95523.28
2022-09-12T08:49:31.110Z,95515.81
2022-09-12T08:52:24.281Z,95517.44
2022-09-12T08:55:22.406Z,95508.44
2022-09-12T08:58:22.737Z,95507.28
2022-09-12T09:01:11.890Z,95508.88
2022-09-12T09:04:34.484Z,95512.63
2022-09-12T09:07:38.694Z,95516.38
2022-09-12T09:10:27.336Z,95511.00
2022-09-12T09:13:44.207Z,95517.34
2022-09-12T09:16:31.537Z,95510.00
2022-09-12T09:19:25.742Z,95499.75
2022-09-12T09:22:33.844Z,95501.81
2022-09-12T09:25:23.943Z,95501.03
2022-09-12T09:28:37.820Z,95494.03
2022-09-12T09:31:25.917Z,95497.28
2022-09-12T09:34:34.307Z,95506.78
2022-09-12T09:37:36.538Z,95503.00
2022-09-12T09:40:58.293Z,95495.34
2022-09-12T09:43:44.164Z,95492.34
2022-09-12T09:46:30.426Z,95495.72
2022-09-12T09:49:17.765Z,95493.56
2022-09-12T09:52:06.593Z,95508.59
2022-09-12T09:54:57.490Z,95503.25
2022-09-12T09:57:46.642Z,95505.00
2022-09-12T10:00:37.177Z,95493.31
2022-09-12T10:03:29.025Z,95496.50
2022-09-12T10:06:20.979Z,95488.34
2022-09-12T10:09:18.840Z,95478.66
2022-09-12T10:12:30.618Z,95487.84
2022-09-12T10:15:21.035Z,95480.13
2022-09-12T10:18:07.256Z,95479.78
2022-09-12T10:20:53.463Z,95464.56
2022-09-12T10:23:41.260Z,95475.69
2022-09-12T10:26:33.062Z,95473.00
2022-09-12T10:29:31.688Z,95478.59
2022-09-12T10:32:31.298Z,95484.28
2022-09-12T10:35:21.515Z,95469.84
2022-09-12T10:38:22.630Z,95475.94
2022-09-12T10:41:10.414Z,95481.59
2022-09-12T10:44:07.683Z,95469.16
2022-09-12T10:46:54.595Z,95477.16
2022-09-12T10:49:41.419Z,95479.63
2022-09-12T10:52:28.560Z,95482.91
2022-09-12T10:55:15.805Z,95483.00
2022-09-12T10:58:14.589Z,95478.00
2022-09-12T11:01:25.576Z,95488.72
2022-09-12T11:04:14.182Z,95485.63
2022-09-12T11:07:15.147Z,95484.88
2022-09-12T11:10:03.916Z,95487.81
2022-09-12T11:13:14.773Z,95476.66
2022-09-12T11:16:14.309Z,95469.03
2022-09-12T11:19:41.667Z,95474.97
2022-09-12T11:22:43.754Z,95478.00
2022-09-12T11:25:43.417Z,95482.13
2022-09-12T11:28:48.040Z,95478.53
2022-09-12T11:31:40.154Z,95487.25
2022-09-12T11:34:33.455Z,95488.25
2022-09-12T11:37:43.907Z,95484.75
2022-09-12T11:40:40.895Z,95489.56
2022-09-12T11:43:35.489Z,95485.75
2022-09-12T11:46:22.961Z,95478.91
2022-09-12T11:49:15.712Z,95471.50
2022-09-12T11:52:11.350Z,95472.44
2022-09-12T11:55:18.907Z,95479.81
2022-09-12T11:58:05.279Z,95468.97
2022-09-12T12:00:55.176Z,95465.97
2022-09-12T12:03:46.805Z,95462.91
2022-09-12T12:06:41.068Z,95470.72
2022-09-12T12:09:27.059Z,95477.09
2022-09-12T12:12:17.706Z,95469.16
2022-09-12T12:15:03.929Z,95465.16
2022-09-12T12:18:04.684Z,95466.09
2022-09-12T12:20:51.410Z,95449.25
2022-09-12T12:23:37.649Z,95451.38
2022-09-12T12:26:47.489Z,95453.38
2022-09-12T12:29:44.634Z,95449.56
2022-09-12T12:32:30.626Z,95436.28
2022-09-12T12:35:54.191Z,95438.25
2022-09-12T12:38:44.512Z,95441.41
2022-09-12T12:41:36.763Z,95439.44
2022-09-12T12:44:44.328Z,95431.16
2022-09-12T12:47:36.117Z,95431.53
2022-09-12T12:50:27.289Z,95419.28
2022-09-12T12:53:17.609Z,95423.03
2022-09-12T12:56:03.643Z,95412.78
2022-09-12T12:58:49.391Z,95420.56
2022-09-12T13:01:41.363Z,95406.09
2022-09-12T13:04:29.708Z,95420.31
2022-09-12T13:07:26.106Z,95414.34
2022-09-12T13:10:23.585Z,95419.28
2022-09-12T13:13:09.850Z,95416.41
2022-09-12T13:15:55.683Z,95402.97
2022-09-12T13:18:54.551Z,95406.38
2022-09-12T13:22:03.394Z,95409.06
2022-09-12T13:24:52.186Z,95408.75
2022-09-12T13:27:38.362Z,95405.63
2022-09-12T13:30:24.297Z,95403.72
2022-09-12T13:33:16.801Z,95398.81
2022-09-12T13:36:15.609Z,95403.84
2022-09-12T13:39:21.451Z,95396.16
2022-09-12T13:42:22.564Z,95393.44
2022-09-12T13:45:27.570Z,95389.34
2022-09-12T13:48:24.327Z,95390.47
2022-09-12T13:51:21.977Z,95387.75
2022-09-12T13:54:07.876Z,95385.69
2022-09-12T13:56:53.928Z,95372.41
2022-09-12T13:59:41.046Z,95383.94
2022-09-12T14:02:29.186Z,95383.22
2022-09-12T14:05:24.255Z,95382.66
2022-09-12T14:08:12.068Z,95382.91
2022-09-12T14:10:58.391Z,95376.63
2022-09-12T14:13:44.220Z,95382.34
2022-09-12T14:16:31.380Z,95385.13
2022-09-12T14:19:18.610Z,95378.72
2022-09-12T14:22:04.610Z,95389.91
2022-09-12T14:24:51.661Z,95380.13
2022-09-12T14:27:48.042Z,95381.94
2022-09-12T14:30:37.599Z,95386.31
2022-09-12T14:33:23.694Z,95384.50
2022-09-12T14:36:12.695Z,95377.41
2022-09-12T14:39:06.491Z,95385.94
2022-09-12T14:42:02.144Z,95382.75
2022-09-12T14:45:00.477Z,95392.09
2022-09-12T14:47:49.972Z,95378.22
2022-09-12T14:50:36.237Z,95378.34
2022-09-12T14:53:32.593Z,95376.66
2022-09-12T14:56:22.303Z,95374.09
2022-09-12T14:59:26.888Z,95380.00
2022-09-12T15:02:21.954Z,95376.75
2022-09-12T15:05:07.776Z,95380.47
2022-09-12T15:08:01.065Z,95386.13
2022-09-12T15:10:47.135Z,95376.72
2022-09-12T15:13:39.815Z,95385.44
2022-09-12T15:16:26.050Z,95379.56
2022-09-12T15:19:12.194Z,95373.63
2022-09-12T15:21:58.101Z,95385.47
2022-09-12T15:24:44.956Z,95377.19
2022-09-12T15:27:31.179Z,95366.53
2022-09-12T15:30:17.189Z,95378.28
2022-09-12T15:33:03.207Z,95374.69
2022-09-12T15:35:49.021Z,95370.34
2022-09-12T15:38:34.988Z,95378.22
2022-09-12T15:41:23.574Z,95376.63
2022-09-12T15:44:13.319Z,95380.56
2022-09-12T15:46:59.298Z,95374.22
2022-09-12T15:49:46.259Z,95383.69
2022-09-12T15:52:32.144Z,95369.50
2022-09-12T15:55:19.831Z,95374.16
2022-09-12T15:58:07.324Z,95377.25
2022-09-12T16:00:53.637Z,95380.72
2022-09-12T16:03:39.755Z,95383.47
2022-09-12T16:06:25.804Z,95384.97
2022-09-12T16:09:16.567Z,95384.16
2022-09-12T16:12:02.851Z,95376.25
2022-09-12T16:14:48.773Z,95386.41
2022-09-12T16:17:34.866Z,95392.66
2022-09-12T16:20:22.220Z,95389.47
2022-09-12T16:23:13.352Z,95394.88
2022-09-12T16:26:05.026Z,95387.38
2022-09-12T16:28:58.405Z,95390.88
2022-09-12T16:31:45.459Z,95391.28
2022-09-12T16:34:31.441Z,95398.72
2022-09-12T16:37:18.127Z,95388.47
2022-09-12T16:40:05.393Z,95387.66
2022-09-12T16:42:51.168Z,95385.25
2022-09-12T16:45:37.004Z,95395.09
2022-09-12T16:48:22.746Z,95400.19
2022-09-12T16:51:08.518Z,95399.34
2022-09-12T16:53:55.515Z,95399.31
2022-09-12T16:56:42.517Z,95390.63
2022-09-12T16:59:28.298Z,95394.88
2022-09-12T17:02:14.179Z,95392.91
2022-09-12T17:05:00.243Z,95389.31
2022-09-12T17:07:46.175Z,95401.47
2022-09-12T17:10:32.763Z,95402.25
2022-09-12T17:13:18.641Z,95396.31
2022-09-12T17:16:11.697Z,95400.16
2022-09-12T17:18:58.712Z,95397.03
2022-09-12T17:21:47.133Z,95410.78
2022-09-12T17:24:33.173Z,95416.22
2022-09-12T17:27:19.323Z,95413.00
2022-09-12T17:30:05.756Z,95416.53
2022-09-12T17:32:52.433Z,95410.97
2022-09-12T17:35:38.945Z,95419.59
2022-09-12T17:38:25.411Z,95408.94
2022-09-12T17:41:17.847Z,95418.31
2022-09-12T17:44:07.394Z,95428.47
2022-09-12T17:46:53.191Z,95433.97
2022-09-12T17:49:40.660Z,95440.19
2022-09-12T17:52:27.622Z,95442.56
2022-09-12T17:55:15.208Z,95441.72
2022-09-12T17:58:01.050Z,95447.94
2022-09-12T18:01:05.824Z,95455.75
2022-09-12T18:03:56.744Z,95461.94
2022-09-12T18:06:48.160Z,95459.16
2022-09-12T18:09:34.445Z,95452.84
2022-09-12T18:12:20.483Z,95456.31
2022-09-12T18:15:07.168Z,95450.78
2022-09-12T18:17:53.884Z,95458.97
2022-09-12T18:20:40.105Z,95467.22
2022-09-12T18:23:27.040Z,95469.47
2022-09-12T18:26:13.570Z,95463.94
2022-09-12T18:28:59.713Z,95480.34
2022-09-12T18:31:49.618Z,95476.34
2022-09-12T18:34:35.777Z,95475.44
2022-09-12T18:37:22.076Z,95473.78
2022-09-12T18:40:09.263Z,95479.16
2022-09-12T18:42:55.525Z,95479.84
2022-09-12T18:45:41.293Z,95470.31
2022-09-12T18:48:27.387Z,95473.00
2022-09-12T18:51:17.973Z,95477.28
2022-09-12T18:54:06.666Z,95483.50
2022-09-12T18:56:52.742Z,95477.53
2022-09-12T18:59:38.749Z,95486.44
2022-09-12T19:02:28.111Z,95480.47
2022-09-12T19:05:13.946Z,95481.13
2022-09-12T19:08:00.047Z,95478.28
2022-09-12T19:10:45.973Z,95482.88
2022-09-12T19:13:32.205Z,95475.69
2022-09-12T19:16:20.657Z,95486.78
2022-09-12T19:19:06.808Z,95481.63
2022-09-12T19:21:52.802Z,95486.47
2022-09-12T19:24:38.841Z,95485.53
2022-09-12T19:27:24.621Z,95488.53
2022-09-12T19:30:11.005Z,95488.47
2022-09-12T19:32:57.232Z,95495.47
2022-09-12T19:35:43.257Z,95492.31
2022-09-12T19:38:29.336Z,95492.56
2022-09-12T19:41:15.399Z,95490.63
2022-09-12T19:44:01.551Z,95496.06
2022-09-12T19:46:47.911Z,95496.78
2022-09-12T19:49:34.014Z,95500.66
2022-09-12T19:52:19.896Z,95499.00
2022-09-12T19:55:06.422Z,95496.19
2022-09-12T19:57:52.688Z,95497.34
2022-09-12T20:00:38.923Z,95494.19
2022-09-12T20:03:25.087Z,95493.75
2022-09-12T20:06:17.356Z,95500.66
2022-09-12T20:09:03.527Z,95496.16
2022-09-12T20:11:49.830Z,95502.00
2022-09-12T20:14:35.949Z,95494.44
2022-09-12T20:17:22.193Z,95496.75
2022-09-12T20:20:11.357Z,95502.22
2022-09-12T20:22:57.531Z,95512.31
2022-09-12T20:25:43.424Z,95504.38
2022-09-12T20:28:29.590Z,95502.72
2022-09-12T20:31:16.626Z,95507.66
2022-09-12T20:34:03.459Z,95508.69
2022-09-12T20:36:49.496Z,95514.16
2022-09-12T20:39:35.691Z,95509.41
2022-09-12T20:42:21.685Z,95514.88
2022-09-12T20:45:07.790Z,95510.91
2022-09-12T20:47:53.659Z,95521.16
2022-09-12T20:50:39.566Z,95514.81
2022-09-12T20:53:25.613Z,95510.91
2022-09-12T20:56:12.663Z,95513.22
2022-09-12T20:58:59.382Z,95509.97
2022-09-12T21:01:45.424Z,95520.13
2022-09-12T21:04:31.574Z,95513.41
2022-09-12T21:07:17.499Z,95516.94
2022-09-12T21:10:03.885Z,95523.09
2022-09-12T21:12:49.796Z,95522.22
2022-09-12T21:15:37.134Z,95526.13
2022-09-12T21:18:23.752Z,95531.84
2022-09-12T21:21:14.204Z,95525.06
2022-09-12T21:24:02.761Z,95525.06
2022-09-12T21:26:51.096Z,95528.50
2022-09-12T21:29:37.134Z,95523.75
2022-09-12T21:32:23.152Z,95525.63
2022-09-12T21:35:09.292Z,95530.19
2022-09-12T21:37:55.427Z,95528.16
2022-09-12T21:40:45.360Z,95533.53
2022-09-12T21:43:31.164Z,95535.50
2022-09-12T21:46:16.964Z,95529.22
2022-09-12T21:49:03.355Z,95519.78
2022-09-12T21:51:51.009Z,95523.66
2022-09-12T21:54:37.048Z,95515.00
2022-09-12T21:57:22.863Z,95527.19
2022-09-12T22:00:14.122Z,95532.56
2022-09-12T22:03:00.181Z,95529.81
2022-09-12T22:05:51.346Z,95528.97
2022-09-12T22:08:38.841Z,95524.63
2022-09-12T22:11:24.644Z,95523.28
2022-09-12T22:14:11.185Z,95528.41
2022-09-12T22:16:57.323Z,95522.84
2022-09-12T22:19:43.067Z,95522.31
2022-09-12T22:22:47.474Z,95508.22
2022-09-12T22:25:33.654Z,95523.13
2022-09-12T22:28:19.772Z,95512.09
2022-09-12T22:31:06.977Z,95513.69
2022-09-12T22:33:57.262Z,95520.63
2022-09-12T22:36:43.210Z,95524.06
2022-09-12T22:39:29.123Z,95515.75
2022-09-12T22:42:15.367Z,95514.97
2022-09-12T22:45:01.883Z,95525.88
2022-09-12T22:47:48.069Z,95523.06
2022-09-12T22:50:34.284Z,95510.88
2022-09-12T22:53:20.167Z,95520.25
2022-09-12T22:56:07.098Z,95521.72
2022-09-12T22:58:53.146Z,95512.28
2022-09-12T23:01:38.859Z,95510.25
2022-09-12T23:04:24.695Z,95507.50
2022-09-12T23:07:11.112Z,95504.34
2022-09-12T23:09:57.004Z,95503.56
2022-09-12T23:12:42.778Z,95492.53
2022-09-12T23:15:28.538Z,95494.81
2022-09-12T23:18:14.262Z,95496.41
2022-09-12T23:21:04.500Z,95498.00
2022-09-12T23:23:50.832Z,95486.97
2022-09-12T23:26:37.023Z,95489.34
2022-09-12T23:29:22.787Z,95486.19
2022-09-12T23:32:08.732Z,95477.53
2022-09-12T23:34:54.665Z,95477.47
2022-09-12T23:37:40.433Z,95482.81
2022-09-12T23:40:26.345Z,95481.22
2022-09-12T23:43:12.370Z,95479.19
2022-09-12T23:45:59.108Z,95476.81
2022-09-12T23:48:45.235Z,95479.91
2022-09-12T23:51:31.460Z,95472.41
2022-09-12T23:54:17.201Z,95475.13
2022-09-12T23:57:02.985Z,95478.53
2022-09-12T23:59:48.726Z,95479.25
